createdAt,value
2022-12-14T00:01:52.254Z,36.03
2022-12-14T00:04:20.570Z,34.25
2022-12-14T00:06:47.771Z,34.97
2022-12-14T00:09:15.141Z,35.08
2022-12-14T00:11:42.372Z,32.85
2022-12-14T00:14:09.517Z,33.78
2022-12-14T00:16:36.920Z,33.70
2022-12-14T00:19:05.614Z,36.08
2022-12-14T00:21:33.880Z,34.17
2022-12-14T00:24:01.266Z,33.78
2022-12-14T00:26:32.726Z,34.08
2022-12-14T00:29:02.058Z,33.03
2022-12-14T00:31:32.528Z,33.38
2022-12-14T00:34:01.149Z,34.65
2022-12-14T00:36:31.459Z,35.00
2022-12-14T00:38:59.621Z,33.70
2022-12-14T00:41:26.905Z,33.95
2022-12-14T00:43:54.073Z,34.72
2022-12-14T00:46:21.277Z,35.75
2022-12-14T00:48:48.531Z,33.85
2022-12-14T00:51:15.786Z,35.22
2022-12-14T00:53:44.962Z,35.50
2022-12-14T00:56:12.812Z,34.30
2022-12-14T00:58:40.372Z,34.38
2022-12-14T01:01:14.626Z,32.17
2022-12-14T01:03:42.426Z,34.35
2022-12-14T01:06:22.980Z,33.85
2022-12-14T01:08:50.522Z,31.40
2022-12-14T01:11:17.831Z,32.05
2022-12-14T01:13:45.112Z,34.75
2022-12-14T01:16:17.197Z,32.53
2022-12-14T01:18:44.415Z,33.45
2022-12-14T01:21:24.215Z,34.75
2022-12-14T01:24:03.825Z,32.95
2022-12-14T01:26:35.777Z,34.38
2022-12-14T01:29:04.529Z,33.58
2022-12-14T01:31:36.699Z,35.70
2022-12-14T01:34:05.532Z,35.25
2022-12-14T01:36:35.298Z,34.00
2022-12-14T01:39:13.719Z,33.97
2022-12-14T01:41:52.845Z,33.90
2022-12-14T01:44:19.839Z,34.58
2022-12-14T01:47:05.106Z,34.75
2022-12-14T01:50:30.461Z,31.40
2022-12-14T01:53:10.497Z,34.97
2022-12-14T01:55:45.260Z,34.25
2022-12-14T01:58:25.630Z,34.38
2022-12-14T02:01:00.103Z,33.42
2022-12-14T02:03:36.924Z,33.30
2022-12-14T02:06:21.083Z,33.55
2022-12-14T02:08:51.130Z,33.58
2022-12-14T02:11:56.990Z,35.60
2022-12-14T02:14:24.832Z,34.88
2022-12-14T02:16:55.888Z,34.15
2022-12-14T02:19:23.321Z,34.22
2022-12-14T02:22:31.368Z,33.67
2022-12-14T02:26:04.142Z,34.40
2022-12-14T02:29:17.805Z,33.92
2022-12-14T02:32:37.688Z,34.65
2022-12-14T02:35:37.351Z,33.80
2022-12-14T02:38:42.180Z,35.05
2022-12-14T02:41:19.137Z,33.88
2022-12-14T02:44:29.185Z,33.67
2022-12-14T02:47:40.487Z,34.47
2022-12-14T02:50:32.034Z,33.13
2022-12-14T02:53:31.965Z,34.80
2022-12-14T02:56:07.471Z,32.63
2022-12-14T02:58:50.662Z,31.67
2022-12-14T03:01:27.887Z,34.05
2022-12-14T03:03:55.725Z,33.72
2022-12-14T03:06:28.107Z,37.60
2022-12-14T03:09:14.820Z,35.67
2022-12-14T03:12:10.673Z,32.85
2022-12-14T03:14:47.781Z,33.70
2022-12-14T03:17:22.193Z,34.35
2022-12-14T03:20:14.738Z,35.42
2022-12-14T03:23:12.355Z,39.08
2022-12-14T03:26:20.109Z,38.17
2022-12-14T03:28:55.057Z,36.22
2022-12-14T03:31:43.535Z,37.80
2022-12-14T03:34:22.397Z,37.30
2022-12-14T03:37:18.481Z,37.40
2022-12-14T03:39:47.427Z,35.28
2022-12-14T03:42:40.875Z,36.83
2022-12-14T03:45:40.186Z,33.53
2022-12-14T03:48:50.087Z,33.33
2022-12-14T03:51:37.596Z,30.42
2022-12-14T03:54:16.154Z,28.05
2022-12-14T03:56:53.245Z,26.77
2022-12-14T03:59:40.670Z,29.92
2022-12-14T04:02:42.613Z,28.45
2022-12-14T04:05:37.985Z,27.23
2022-12-14T04:09:18.147Z,27.45
2022-12-14T04:12:19.951Z,27.88
2022-12-14T04:15:25.889Z,28.58
2022-12-14T04:18:18.391Z,27.92
2022-12-14T04:20:57.111Z,28.35
2022-12-14T04:23:58.303Z,27.52
2022-12-14T04:26:34.061Z,25.58
2022-12-14T04:29:31.139Z,27.15
2022-12-14T04:32:37.208Z,27.77
2022-12-14T04:35:47.615Z,28.23
2022-12-14T04:38:23.056Z,24.63
2022-12-14T04:40:59.080Z,27.70
2022-12-14T04:43:35.544Z,26.17
2022-12-14T04:46:22.426Z,26.75
2022-12-14T04:49:20.236Z,26.67
2022-12-14T04:52:16.662Z,26.15
2022-12-14T04:55:03.616Z,26.25
2022-12-14T04:58:02.842Z,25.10
2022-12-14T05:00:36.217Z,20.50
2022-12-14T05:03:17.029Z,25.85
2022-12-14T05:06:21.698Z,24.70
2022-12-14T05:09:29.988Z,23.20
2022-12-14T05:12:07.701Z,24.27
2022-12-14T05:15:06.201Z,21.13
2022-12-14T05:17:38.693Z,24.35
2022-12-14T05:20:14.696Z,25.60
2022-12-14T05:22:42.511Z,25.10
2022-12-14T05:25:09.819Z,18.67
2022-12-14T05:27:37.189Z,25.90
2022-12-14T05:30:06.647Z,19.25
2022-12-14T05:32:34.367Z,23.77
2022-12-14T05:35:03.870Z,23.90
2022-12-14T05:37:31.188Z,25.52
2022-12-14T05:39:58.485Z,26.67
2022-12-14T05:42:25.796Z,25.02
2022-12-14T05:44:52.950Z,26.20
2022-12-14T05:47:20.058Z,27.55
2022-12-14T05:49:49.298Z,24.50
2022-12-14T05:52:17.537Z,27.90
2022-12-14T05:54:44.760Z,26.40
2022-12-14T05:57:12.951Z,26.30
2022-12-14T05:59:40.178Z,28.55
2022-12-14T06:02:07.766Z,28.55
2022-12-14T06:04:35.368Z,28.50
2022-12-14T06:07:02.760Z,28.63
2022-12-14T06:09:29.944Z,28.27
2022-12-14T06:11:57.072Z,27.50
2022-12-14T06:14:25.304Z,28.33
2022-12-14T06:16:52.851Z,28.95
2022-12-14T06:19:20.393Z,30.70
2022-12-14T06:21:47.718Z,31.33
2022-12-14T06:24:15.358Z,30.58
2022-12-14T06:26:42.845Z,30.33
2022-12-14T06:29:19.975Z,32.22
2022-12-14T06:31:49.431Z,30.23
2022-12-14T06:34:18.884Z,29.95
2022-12-14T06:36:47.062Z,32.13
2022-12-14T06:39:16.959Z,29.52
2022-12-14T06:41:49.078Z,31.67
2022-12-14T06:44:16.947Z,31.92
2022-12-14T06:46:44.785Z,30.70
2022-12-14T06:49:15.423Z,29.52
2022-12-14T06:51:44.288Z,31.65
2022-12-14T06:54:13.503Z,29.02
2022-12-14T06:56:42.920Z,29.45
2022-12-14T06:59:11.583Z,29.75
2022-12-14T07:01:40.777Z,29.40
2022-12-14T07:04:09.684Z,29.63
2022-12-14T07:06:42.531Z,31.08
2022-12-14T07:09:14.527Z,31.35
2022-12-14T07:11:42.081Z,30.30
2022-12-14T07:14:17.529Z,31.35
2022-12-14T07:16:48.331Z,31.67
2022-12-14T07:19:17.676Z,30.38
2022-12-14T07:21:45.026Z,32.25
2022-12-14T07:24:12.330Z,31.67
2022-12-14T07:26:39.555Z,29.55
2022-12-14T07:29:06.792Z,30.73
2022-12-14T07:31:34.146Z,32.40
2022-12-14T07:34:02.530Z,32.10
2022-12-14T07:36:30.621Z,32.05
2022-12-14T07:38:58.030Z,31.10
2022-12-14T07:41:31.052Z,32.67
2022-12-14T07:44:00.905Z,30.23
2022-12-14T07:46:30.671Z,32.15
2022-12-14T07:49:02.345Z,32.15
2022-12-14T07:51:37.481Z,31.40
2022-12-14T07:54:07.023Z,32.55
2022-12-14T07:56:40.419Z,31.88
2022-12-14T07:59:15.162Z,32.72
2022-12-14T08:01:43.736Z,33.60
2022-12-14T08:04:18.375Z,31.92
2022-12-14T08:06:47.779Z,31.90
2022-12-14T08:09:17.363Z,32.08
2022-12-14T08:11:44.867Z,34.33
2022-12-14T08:14:19.011Z,35.97
2022-12-14T08:16:49.223Z,33.45
2022-12-14T08:19:19.543Z,33.30
2022-12-14T08:21:47.316Z,33.95
2022-12-14T08:24:16.888Z,31.90
2022-12-14T08:26:47.270Z,30.92
2022-12-14T08:29:17.513Z,32.65
2022-12-14T08:31:44.875Z,32.42
2022-12-14T08:34:12.268Z,32.25
2022-12-14T08:36:41.984Z,33.95
2022-12-14T08:39:10.988Z,34.97
2022-12-14T08:41:38.231Z,34.10
2022-12-14T08:44:06.214Z,32.67
2022-12-14T08:46:37.681Z,33.67
2022-12-14T08:49:05.069Z,32.40
2022-12-14T08:51:32.594Z,33.53
2022-12-14T08:54:00.888Z,33.08
2022-12-14T08:56:29.185Z,32.00
2022-12-14T08:58:57.504Z,34.00
2022-12-14T09:01:34.108Z,33.53
2022-12-14T09:04:08.511Z,34.03
2022-12-14T09:06:39.485Z,34.10
2022-12-14T09:09:15.599Z,33.17
2022-12-14T09:11:45.466Z,34.05
2022-12-14T09:14:13.016Z,33.00
2022-12-14T09:16:40.889Z,34.13
2022-12-14T09:19:08.412Z,32.78
2022-12-14T09:21:35.722Z,34.35
2022-12-14T09:24:03.204Z,36.28
2022-12-14T09:26:30.487Z,33.70
2022-12-14T09:28:58.362Z,32.38
2022-12-14T09:31:28.369Z,35.03
2022-12-14T09:33:56.901Z,33.28
2022-12-14T09:36:28.138Z,33.08
2022-12-14T09:38:57.389Z,33.45
2022-12-14T09:41:33.940Z,33.75
2022-12-14T09:44:25.785Z,33.63
2022-12-14T09:47:51.525Z,32.35
2022-12-14T09:50:22.854Z,31.98
2022-12-14T09:53:06.158Z,33.83
2022-12-14T09:55:43.636Z,30.75
2022-12-14T09:58:25.659Z,31.65
2022-12-14T10:01:23.743Z,30.45
2022-12-14T10:04:17.402Z,29.98
2022-12-14T10:07:06.564Z,31.23
2022-12-14T10:10:00.817Z,34.22
2022-12-14T10:12:33.951Z,31.02
2022-12-14T10:15:29.297Z,27.77
2022-12-14T10:21:28.257Z,28.52
2022-12-14T10:24:15.993Z,27.73
2022-12-14T10:26:52.762Z,27.90
2022-12-14T10:29:37.779Z,27.05
2022-12-14T10:32:39.935Z,27.40
2022-12-14T10:35:22.925Z,27.73
2022-12-14T10:38:06.373Z,28.17
2022-12-14T10:40:35.395Z,29.02
2022-12-14T10:43:26.547Z,28.00
2022-12-14T10:46:22.886Z,27.15
2022-12-14T10:49:50.849Z,27.52
2022-12-14T10:55:02.484Z,24.98
2022-12-14T10:57:29.808Z,26.75
2022-12-14T11:00:08.359Z,26.17
2022-12-14T11:02:43.580Z,25.85
2022-12-14T11:05:37.948Z,26.87
2022-12-14T11:08:07.673Z,28.52
2022-12-14T11:10:39.547Z,28.63
2022-12-14T11:13:09.442Z,28.45
2022-12-14T11:15:49.536Z,27.85
2022-12-14T11:18:16.649Z,30.25
2022-12-14T11:21:02.141Z,31.73
2022-12-14T11:23:38.989Z,31.52
2022-12-14T11:26:40.765Z,32.50
2022-12-14T11:29:22.044Z,31.10
2022-12-14T11:31:53.800Z,30.42
2022-12-14T11:34:35.880Z,32.55
2022-12-14T11:37:29.941Z,32.45
2022-12-14T11:40:05.745Z,31.50
2022-12-14T11:42:33.979Z,32.78
2022-12-14T11:45:26.008Z,30.30
2022-12-14T11:48:22.545Z,53.95
2022-12-14T11:50:53.004Z,34.05
2022-12-14T11:53:22.984Z,33.58
2022-12-14T11:55:58.152Z,33.53
2022-12-14T11:58:34.654Z,32.70
2022-12-14T12:01:26.048Z,31.95
2022-12-14T12:03:58.489Z,32.50
2022-12-14T12:06:29.400Z,32.50
2022-12-14T12:09:00.981Z,33.60
2022-12-14T12:11:33.774Z,31.45
2022-12-14T12:14:33.758Z,32.00
2022-12-14T12:17:01.379Z,32.65
2022-12-14T12:19:37.183Z,31.90
2022-12-14T12:22:09.246Z,32.42
2022-12-14T12:25:25.680Z,32.67
2022-12-14T12:28:06.613Z,29.95
2022-12-14T12:30:40.304Z,32.15
2022-12-14T12:33:41.717Z,27.92
2022-12-14T12:36:10.050Z,29.30
2022-12-14T12:39:06.530Z,29.25
2022-12-14T12:42:22.508Z,28.40
2022-12-14T12:45:20.513Z,26.98
2022-12-14T12:48:05.797Z,27.05
2022-12-14T12:50:42.120Z,29.53
2022-12-14T12:53:30.263Z,26.95
2022-12-14T12:56:25.164Z,28.08
2022-12-14T12:58:53.708Z,27.25
2022-12-14T13:01:31.787Z,27.48
2022-12-14T13:04:05.039Z,27.13
2022-12-14T13:06:49.933Z,27.38
2022-12-14T13:09:43.277Z,27.98
2022-12-14T13:12:47.926Z,25.42
2022-12-14T13:15:41.017Z,27.02
2022-12-14T13:18:59.511Z,26.83
2022-12-14T13:21:36.302Z,26.48
2022-12-14T13:24:06.675Z,24.95
2022-12-14T13:27:35.310Z,25.33
2022-12-14T13:30:22.620Z,27.42
2022-12-14T13:33:17.372Z,28.48
2022-12-14T13:36:40.804Z,25.75
2022-12-14T13:39:10.926Z,26.77
2022-12-14T13:42:12.883Z,25.88
2022-12-14T13:45:03.787Z,28.20
2022-12-14T13:47:41.455Z,27.10
2022-12-14T13:50:37.176Z,27.25
2022-12-14T13:53:18.661Z,27.48
2022-12-14T13:55:58.375Z,27.27
2022-12-14T13:58:42.651Z,27.80
2022-12-14T14:01:33.644Z,27.52
2022-12-14T14:04:22.403Z,27.00
2022-12-14T14:06:55.834Z,27.83
2022-12-14T14:10:01.163Z,26.10
2022-12-14T14:12:44.823Z,27.58
2022-12-14T14:15:38.190Z,26.35
2022-12-14T14:18:20.207Z,27.65
2022-12-14T14:21:12.846Z,27.33
2022-12-14T14:24:20.160Z,29.95
2022-12-14T14:27:19.409Z,29.33
2022-12-14T14:29:51.788Z,29.30
2022-12-14T14:32:40.261Z,29.38
2022-12-14T14:35:34.786Z,30.05
2022-12-14T14:38:31.550Z,30.65
2022-12-14T14:41:18.409Z,30.23
2022-12-14T14:44:04.624Z,30.30
2022-12-14T14:46:40.663Z,29.67
2022-12-14T14:49:29.095Z,29.23
2022-12-14T14:51:56.999Z,30.13
2022-12-14T14:58:39.025Z,30.50
2022-12-14T15:01:06.532Z,30.67
2022-12-14T15:04:02.092Z,30.52
2022-12-14T15:06:37.498Z,30.42
2022-12-14T15:09:08.837Z,30.80
2022-12-14T15:11:54.538Z,31.88
2022-12-14T15:14:48.813Z,32.05
2022-12-14T15:17:21.710Z,31.80
2022-12-14T15:19:52.956Z,31.63
2022-12-14T15:22:24.940Z,33.55
2022-12-14T15:24:56.549Z,32.03
2022-12-14T15:27:36.232Z,32.08
2022-12-14T15:30:12.612Z,30.55
2022-12-14T15:32:47.641Z,32.83
2022-12-14T15:35:24.151Z,32.22
2022-12-14T15:38:00.196Z,31.80
2022-12-14T15:40:30.784Z,30.85
2022-12-14T15:43:17.029Z,30.65
2022-12-14T15:45:51.654Z,32.22
2022-12-14T15:48:24.840Z,32.10
2022-12-14T15:51:11.660Z,32.28
2022-12-14T15:53:53.553Z,31.58
2022-12-14T15:56:45.282Z,31.05
2022-12-14T15:59:33.933Z,34.42
2022-12-14T16:02:29.091Z,34.35
2022-12-14T16:05:00.735Z,32.63
2022-12-14T16:07:41.341Z,32.53
2022-12-14T16:10:33.035Z,32.88
2022-12-14T16:13:24.328Z,35.13
2022-12-14T16:15:52.810Z,32.13
2022-12-14T16:18:20.614Z,35.45
2022-12-14T16:20:59.733Z,34.53
2022-12-14T16:23:37.932Z,33.65
2022-12-14T16:26:15.192Z,35.10
2022-12-14T16:28:42.935Z,37.08
2022-12-14T16:31:24.343Z,34.42
2022-12-14T16:34:20.297Z,34.30
2022-12-14T16:37:22.808Z,34.72
2022-12-14T16:39:47.645Z,34.28
2022-12-14T16:42:27.087Z,31.38
2022-12-14T16:44:54.678Z,33.20
2022-12-14T16:47:35.266Z,32.17
2022-12-14T16:50:02.466Z,32.50
2022-12-14T16:52:38.002Z,28.40
2022-12-14T16:55:12.215Z,30.02
2022-12-14T16:57:48.427Z,31.77
2022-12-14T17:00:32.461Z,30.73
2022-12-14T17:03:08.204Z,30.85
2022-12-14T17:05:41.792Z,31.13
2022-12-14T17:08:11.556Z,31.73
2022-12-14T17:10:39.150Z,32.97
2022-12-14T17:13:06.421Z,31.98
2022-12-14T17:15:35.082Z,32.88
2022-12-14T17:18:04.682Z,32.33
2022-12-14T17:20:39.342Z,33.70
2022-12-14T17:23:15.145Z,33.92
2022-12-14T17:25:46.288Z,33.80
2022-12-14T17:28:31.030Z,34.13
2022-12-14T17:31:01.650Z,35.10
2022-12-14T17:33:31.704Z,35.78
2022-12-14T17:35:59.459Z,35.78
2022-12-14T17:38:26.702Z,32.40
2022-12-14T17:40:54.406Z,34.83
2022-12-14T17:43:27.782Z,34.92
2022-12-14T17:45:55.521Z,35.60
2022-12-14T17:48:22.817Z,35.95
2022-12-14T17:50:51.226Z,34.28
2022-12-14T17:53:30.191Z,36.30
2022-12-14T17:55:58.663Z,35.47
2022-12-14T17:58:25.982Z,33.80
2022-12-14T18:01:03.279Z,35.22
2022-12-14T18:03:36.757Z,37.53
2022-12-14T18:06:04.817Z,38.08
2022-12-14T18:08:32.101Z,38.97
2022-12-14T18:11:11.759Z,38.78
2022-12-14T18:13:42.119Z,36.13
2022-12-14T18:16:20.968Z,36.88
2022-12-14T18:18:49.238Z,34.67
2022-12-14T18:21:23.194Z,34.55
2022-12-14T18:23:50.842Z,35.80
2022-12-14T18:26:22.064Z,36.58
2022-12-14T18:28:52.047Z,37.08
2022-12-14T18:31:32.456Z,37.65
2022-12-14T18:33:59.759Z,37.47
2022-12-14T18:36:27.245Z,34.22
2022-12-14T18:38:54.836Z,37.13
2022-12-14T18:41:25.682Z,37.90
2022-12-14T18:43:54.330Z,41.05
2022-12-14T18:46:22.059Z,40.25
2022-12-14T18:48:49.693Z,45.67
2022-12-14T18:51:23.608Z,45.00
2022-12-14T18:53:55.056Z,40.15
2022-12-14T18:56:25.311Z,41.58
2022-12-14T18:58:52.787Z,40.83
2022-12-14T19:01:24.778Z,39.30
2022-12-14T19:03:52.364Z,41.53
2022-12-14T19:09:14.207Z,44.53
2022-12-14T19:11:42.392Z,46.63
2022-12-14T19:14:10.657Z,46.92
2022-12-14T19:16:37.997Z,45.65
2022-12-14T19:19:05.349Z,43.70
2022-12-14T19:21:32.542Z,45.17
2022-12-14T19:24:00.058Z,44.50
2022-12-14T19:26:28.937Z,48.65
2022-12-14T19:28:56.504Z,46.22
2022-12-14T19:31:23.762Z,47.20
2022-12-14T19:33:51.044Z,45.95
2022-12-14T19:36:18.314Z,47.03
2022-12-14T19:38:49.175Z,46.75
2022-12-14T19:41:20.417Z,44.00
2022-12-14T19:43:48.124Z,47.20
2022-12-14T19:46:17.574Z,45.22
2022-12-14T19:48:45.297Z,46.80
2022-12-14T19:51:14.202Z,48.45
2022-12-14T19:53:45.326Z,46.95
2022-12-14T19:56:17.451Z,48.90
2022-12-14T19:58:45.968Z,48.38
2022-12-14T20:01:16.664Z,49.63
2022-12-14T20:03:44.369Z,48.90
2022-12-14T20:06:11.731Z,49.90
2022-12-14T20:08:38.977Z,47.28
2022-12-14T20:11:09.768Z,46.13
2022-12-14T20:13:37.792Z,46.55
2022-12-14T20:16:05.945Z,50.72
2022-12-14T20:18:33.561Z,57.13
2022-12-14T20:21:08.658Z,51.83
2022-12-14T20:23:38.610Z,52.00
2022-12-14T20:26:18.748Z,54.80
2022-12-14T20:28:53.125Z,49.95
2022-12-14T20:31:22.260Z,49.80
2022-12-14T20:33:50.285Z,49.17
2022-12-14T20:36:18.821Z,51.05
2022-12-14T20:38:49.335Z,47.08
2022-12-14T20:41:18.312Z,51.58
2022-12-14T20:43:45.932Z,50.45
2022-12-14T20:46:40.562Z,49.90
2022-12-14T20:49:16.379Z,46.85
2022-12-14T20:51:46.572Z,45.47
2022-12-14T20:54:17.957Z,45.22
2022-12-14T20:56:49.441Z,47.40
2022-12-14T20:59:17.521Z,45.97
2022-12-14T21:01:51.777Z,48.28
2022-12-14T21:04:20.993Z,47.25
2022-12-14T21:06:48.645Z,46.47
2022-12-14T21:09:16.028Z,49.35
2022-12-14T21:12:06.158Z,47.47
2022-12-14T21:14:44.628Z,47.47
2022-12-14T21:17:11.838Z,47.47
2022-12-14T21:19:40.164Z,45.67
2022-12-14T21:22:14.024Z,46.30
2022-12-14T21:27:32.302Z,47.50
2022-12-14T21:30:00.949Z,50.35
2022-12-14T21:32:28.391Z,50.42
2022-12-14T21:34:55.659Z,46.20
2022-12-14T21:37:23.611Z,49.22
2022-12-14T21:39:55.140Z,48.33
2022-12-14T21:42:24.557Z,48.10
2022-12-14T21:44:54.221Z,50.30
2022-12-14T21:47:28.354Z,53.47
2022-12-14T21:49:56.399Z,63.85
2022-12-14T21:52:27.653Z,60.80
2022-12-14T21:54:55.081Z,60.58
2022-12-14T21:57:49.983Z,60.38
2022-12-14T22:00:19.608Z,63.03
2022-12-14T22:02:46.885Z,61.47
2022-12-14T22:05:14.183Z,52.38
2022-12-14T22:07:41.828Z,53.70
2022-12-14T22:10:09.091Z,57.03
2022-12-14T22:12:36.312Z,59.50
2022-12-14T22:15:03.945Z,55.53
2022-12-14T22:17:31.126Z,55.50
2022-12-14T22:19:59.360Z,52.50
2022-12-14T22:22:26.548Z,55.45
2022-12-14T22:24:53.705Z,51.63
2022-12-14T22:27:21.199Z,51.47
2022-12-14T22:29:48.432Z,52.83
2022-12-14T22:32:15.764Z,52.47
2022-12-14T22:34:43.138Z,52.78
2022-12-14T22:37:16.743Z,53.58
2022-12-14T22:39:44.236Z,51.85
2022-12-14T22:42:16.019Z,53.15
2022-12-14T22:44:43.678Z,51.17
2022-12-14T22:47:11.289Z,52.45
2022-12-14T22:49:38.519Z,51.15
2022-12-14T22:52:05.777Z,53.78
2022-12-14T22:54:32.957Z,52.67
2022-12-14T22:57:11.205Z,50.42
2022-12-14T23:00:00.086Z,51.72
2022-12-14T23:02:30.033Z,49.80
2022-12-14T23:04:57.561Z,53.05
2022-12-14T23:07:24.861Z,54.47
2022-12-14T23:10:10.533Z,52.33
2022-12-14T23:12:56.633Z,52.00
2022-12-14T23:18:28.105Z,49.97
2022-12-14T23:21:15.053Z,50.50
2022-12-14T23:24:04.441Z,52.30
2022-12-14T23:26:51.936Z,50.97
2022-12-14T23:29:38.024Z,53.00
2022-12-14T23:35:09.933Z,46.65
2022-12-14T23:40:41.481Z,47.33
2022-12-14T23:43:36.636Z,52.00
2022-12-14T23:46:24.211Z,52.50
2022-12-14T23:49:15.379Z,50.67
2022-12-14T23:52:02.115Z,48.72
2022-12-14T23:57:34.580Z,49.20
